createdAt,value
2019-02-18T00:01:54.912Z,99.90
2019-02-18T00:04:26.095Z,99.90
2019-02-18T00:06:57.408Z,99.90
2019-02-18T00:09:28.548Z,99.90
2019-02-18T00:11:59.917Z,99.90
2019-02-18T00:14:31.026Z,99.90
2019-02-18T00:17:02.179Z,99.90
2019-02-18T00:19:33.308Z,99.90
2019-02-18T00:22:04.584Z,99.90
2019-02-18T00:24:35.764Z,99.90
2019-02-18T00:27:07.088Z,99.90
2019-02-18T00:29:38.226Z,99.90
2019-02-18T00:32:09.568Z,99.90
2019-02-18T00:34:40.663Z,99.90
2019-02-18T00:37:12.160Z,99.90
2019-02-18T00:39:43.520Z,99.90
2019-02-18T00:42:26.388Z,99.90
2019-02-18T00:44:57.474Z,99.90
2019-02-18T00:47:28.676Z,99.90
2019-02-18T00:49:59.762Z,99.90
2019-02-18T00:52:31.132Z,99.90
2019-02-18T00:55:02.200Z,99.90
2019-02-18T00:57:33.538Z,99.90
2019-02-18T01:00:05.330Z,99.90
2019-02-18T01:02:37.242Z,99.90
2019-02-18T01:05:08.520Z,99.90
2019-02-18T01:07:39.834Z,99.90
2019-02-18T01:10:12.484Z,99.90
2019-02-18T01:12:43.964Z,99.90
2019-02-18T01:15:15.038Z,99.90
2019-02-18T01:17:46.464Z,99.90
2019-02-18T01:20:17.502Z,99.90
2019-02-18T01:22:48.861Z,99.90
2019-02-18T01:25:19.986Z,99.90
2019-02-18T01:27:51.453Z,99.90
2019-02-18T01:30:22.564Z,99.90
2019-02-18T01:32:53.950Z,99.90
2019-02-18T01:35:25.095Z,99.90
2019-02-18T01:37:56.372Z,99.90
2019-02-18T01:40:27.440Z,99.90
2019-02-18T01:42:58.728Z,99.90
2019-02-18T01:45:29.831Z,99.90
2019-02-18T01:48:01.129Z,99.90
2019-02-18T01:50:32.228Z,99.90
2019-02-18T01:53:03.366Z,99.90
2019-02-18T01:55:34.458Z,99.90
2019-02-18T01:58:05.803Z,99.90
2019-02-18T02:00:36.970Z,99.90
2019-02-18T02:03:08.231Z,99.90
2019-02-18T02:05:39.603Z,99.90
2019-02-18T02:08:10.992Z,99.90
2019-02-18T02:10:42.166Z,99.90
2019-02-18T02:13:32.549Z,99.90
2019-02-18T02:16:09.318Z,99.90
2019-02-18T02:18:40.585Z,99.90
2019-02-18T02:21:11.653Z,99.90
2019-02-18T02:23:43.056Z,99.90
2019-02-18T02:26:14.288Z,99.90
2019-02-18T02:28:45.740Z,99.90
2019-02-18T02:31:18.137Z,99.90
2019-02-18T02:33:49.468Z,99.90
2019-02-18T02:36:20.515Z,99.90
2019-02-18T02:38:51.656Z,99.90
2019-02-18T02:41:22.756Z,99.90
2019-02-18T02:43:54.184Z,99.90
2019-02-18T02:46:25.295Z,99.90
2019-02-18T02:49:15.594Z,99.90
2019-02-18T02:51:46.757Z,99.90
2019-02-18T02:54:18.087Z,99.90
2019-02-18T02:56:49.182Z,99.90
2019-02-18T02:59:20.882Z,99.90
2019-02-18T03:01:52.019Z,99.90
2019-02-18T03:04:23.359Z,99.90
2019-02-18T03:06:54.510Z,99.90
2019-02-18T03:09:25.674Z,99.90
2019-02-18T03:11:56.785Z,99.90
2019-02-18T03:14:28.064Z,99.90
2019-02-18T03:16:59.110Z,99.90
2019-02-18T03:19:30.396Z,99.90
2019-02-18T03:22:01.482Z,99.90
2019-02-18T03:24:32.847Z,99.90
2019-02-18T03:27:03.987Z,99.90
2019-02-18T03:30:22.256Z,99.90
2019-02-18T03:32:56.209Z,99.90
2019-02-18T03:35:27.602Z,99.90
2019-02-18T03:37:58.856Z,99.90
2019-02-18T03:40:30.948Z,99.90
2019-02-18T03:43:02.146Z,99.90
2019-02-18T03:45:33.377Z,99.90
2019-02-18T03:48:04.550Z,99.90
2019-02-18T03:50:35.966Z,99.90
2019-02-18T03:53:07.096Z,99.90
2019-02-18T03:55:38.243Z,99.90
2019-02-18T03:58:09.484Z,99.90
2019-02-18T04:00:40.798Z,99.90
2019-02-18T04:03:11.896Z,99.90
2019-02-18T04:05:43.285Z,99.90
2019-02-18T04:08:14.373Z,99.90
2019-02-18T04:10:45.794Z,99.90
2019-02-18T04:13:16.942Z,99.90
2019-02-18T04:15:48.472Z,99.90
2019-02-18T04:18:19.672Z,99.90
2019-02-18T04:20:50.984Z,99.90
2019-02-18T04:23:22.081Z,99.90
2019-02-18T04:25:53.373Z,99.90
2019-02-18T04:28:24.524Z,99.90
2019-02-18T04:30:55.864Z,99.90
2019-02-18T04:33:26.936Z,99.90
2019-02-18T04:35:58.104Z,99.90
2019-02-18T04:38:29.183Z,99.90
2019-02-18T04:41:00.866Z,99.90
2019-02-18T04:43:31.912Z,99.90
2019-02-18T04:46:03.245Z,99.90
2019-02-18T04:48:34.301Z,99.90
2019-02-18T04:51:05.649Z,99.90
2019-02-18T04:53:36.760Z,99.90
2019-02-18T04:56:08.133Z,99.90
2019-02-18T04:58:39.209Z,99.90
2019-02-18T05:01:10.530Z,99.90
2019-02-18T05:03:41.628Z,99.90
2019-02-18T05:06:12.977Z,99.90
2019-02-18T05:08:44.175Z,99.90
2019-02-18T05:11:15.621Z,99.90
2019-02-18T05:13:46.774Z,99.90
2019-02-18T05:16:17.974Z,99.90
2019-02-18T05:18:49.029Z,99.90
2019-02-18T05:21:20.348Z,99.90
2019-02-18T05:23:51.397Z,99.90
2019-02-18T05:26:22.784Z,99.90
2019-02-18T05:28:53.849Z,99.90
2019-02-18T05:31:25.181Z,99.90
2019-02-18T05:33:56.220Z,99.90
2019-02-18T05:36:27.478Z,99.90
2019-02-18T05:38:58.626Z,99.90
2019-02-18T05:41:31.198Z,99.90
2019-02-18T05:44:02.621Z,99.90
2019-02-18T05:46:33.994Z,99.90
2019-02-18T05:49:05.060Z,99.90
2019-02-18T05:51:36.380Z,99.90
2019-02-18T05:54:07.438Z,99.90
2019-02-18T05:56:38.791Z,99.90
2019-02-18T05:59:09.854Z,99.90
2019-02-18T06:01:41.152Z,99.90
2019-02-18T06:04:12.221Z,99.90
2019-02-18T06:06:43.456Z,99.90
2019-02-18T06:09:14.616Z,99.90
2019-02-18T06:11:45.955Z,99.90
2019-02-18T06:14:17.068Z,99.90
2019-02-18T06:16:48.383Z,99.90
2019-02-18T06:19:19.502Z,99.90
2019-02-18T06:21:50.888Z,99.90
2019-02-18T06:24:22.008Z,99.90
2019-02-18T06:26:53.431Z,99.90
2019-02-18T06:29:24.536Z,99.90
2019-02-18T06:31:55.929Z,99.90
2019-02-18T06:34:27.070Z,99.90
2019-02-18T06:36:58.369Z,99.90
2019-02-18T06:39:40.222Z,99.90
2019-02-18T06:42:02.448Z,99.90
2019-02-18T06:44:38.944Z,99.90
2019-02-18T06:47:13.757Z,99.90
2019-02-18T06:49:44.906Z,99.90
2019-02-18T06:52:16.281Z,99.90
2019-02-18T06:54:47.462Z,99.90
2019-02-18T06:57:47.004Z,99.90
2019-02-18T07:00:37.083Z,99.90
2019-02-18T07:03:21.172Z,99.90
2019-02-18T07:06:00.024Z,99.90
2019-02-18T07:08:56.442Z,99.90
2019-02-18T07:11:52.444Z,99.90
2019-02-18T07:14:23.784Z,99.90
2019-02-18T07:16:54.968Z,99.90
2019-02-18T07:19:26.278Z,99.90
2019-02-18T07:21:57.404Z,99.90
2019-02-18T07:24:28.772Z,99.90
2019-02-18T07:26:59.882Z,99.90
2019-02-18T07:29:31.286Z,99.90
2019-02-18T07:32:02.368Z,99.90
2019-02-18T07:34:33.773Z,99.90
2019-02-18T07:37:04.882Z,99.90
2019-02-18T07:39:36.260Z,99.90
2019-02-18T07:42:07.322Z,99.90
2019-02-18T07:44:38.754Z,99.90
2019-02-18T07:47:09.903Z,99.90
2019-02-18T07:49:41.272Z,99.90
2019-02-18T07:52:12.438Z,99.90
2019-02-18T07:54:43.749Z,99.90
2019-02-18T07:57:14.899Z,99.90
2019-02-18T07:59:46.362Z,99.90
2019-02-18T08:02:18.368Z,99.90
2019-02-18T08:04:50.896Z,99.90
2019-02-18T08:07:22.035Z,99.90
2019-02-18T08:09:53.489Z,99.90
2019-02-18T08:12:24.581Z,99.90
2019-02-18T08:14:55.864Z,99.90
2019-02-18T08:17:26.952Z,99.90
2019-02-18T08:19:58.254Z,99.90
2019-02-18T08:22:29.396Z,99.90
2019-02-18T08:25:00.758Z,99.90
2019-02-18T08:27:32.036Z,99.90
2019-02-18T08:30:03.460Z,99.90
2019-02-18T08:32:36.008Z,99.90
2019-02-18T08:35:07.694Z,99.90
2019-02-18T08:37:38.863Z,99.90
2019-02-18T08:40:10.894Z,99.90
2019-02-18T08:42:41.966Z,99.90
2019-02-18T08:45:13.389Z,99.90
2019-02-18T08:47:44.562Z,99.90
2019-02-18T08:50:15.792Z,99.90
2019-02-18T08:52:46.864Z,99.90
2019-02-18T08:55:18.276Z,99.90
2019-02-18T08:57:49.430Z,99.90
2019-02-18T09:00:20.690Z,99.90
2019-02-18T09:02:51.836Z,99.90
2019-02-18T09:05:23.360Z,99.90
2019-02-18T09:07:54.557Z,99.90
2019-02-18T09:10:33.751Z,99.90
2019-02-18T09:13:00.027Z,99.90
2019-02-18T09:15:31.426Z,99.90
2019-02-18T09:18:02.550Z,99.90
2019-02-18T09:20:33.992Z,99.90
2019-02-18T09:23:32.824Z,99.90
2019-02-18T09:26:05.092Z,99.90
2019-02-18T09:28:36.192Z,99.90
2019-02-18T09:31:07.388Z,99.90
2019-02-18T09:33:38.698Z,99.90
2019-02-18T09:36:09.973Z,99.90
2019-02-18T09:38:41.024Z,99.90
2019-02-18T09:41:12.395Z,99.90
2019-02-18T09:43:43.452Z,99.90
2019-02-18T09:46:14.648Z,99.90
2019-02-18T09:48:45.719Z,99.90
2019-02-18T09:51:17.054Z,99.90
2019-02-18T09:53:48.236Z,99.90
2019-02-18T09:56:19.659Z,99.90
2019-02-18T09:58:50.845Z,99.90
2019-02-18T10:01:22.000Z,99.90
2019-02-18T10:03:53.064Z,99.90
2019-02-18T10:06:24.308Z,99.90
2019-02-18T10:08:55.421Z,99.90
2019-02-18T10:11:26.832Z,99.90
2019-02-18T10:13:57.925Z,99.90
2019-02-18T10:16:29.340Z,99.90
2019-02-18T10:19:00.414Z,99.90
2019-02-18T10:21:31.808Z,99.90
2019-02-18T10:24:02.978Z,99.90
2019-02-18T10:26:34.367Z,99.90
2019-02-18T10:29:05.604Z,99.90
2019-02-18T10:31:36.899Z,99.90
2019-02-18T10:34:07.988Z,99.90
2019-02-18T10:36:39.292Z,99.90
2019-02-18T10:39:10.379Z,99.90
2019-02-18T10:41:41.997Z,99.90
2019-02-18T10:44:13.130Z,99.90
2019-02-18T10:46:44.515Z,99.60
2019-02-18T10:49:19.815Z,99.60
2019-02-18T10:51:48.731Z,99.40
2019-02-18T10:54:19.976Z,97.90
2019-02-18T10:56:51.442Z,98.30
2019-02-18T10:59:22.613Z,97.10
2019-02-18T11:01:53.857Z,97.80
2019-02-18T11:04:24.930Z,96.50
2019-02-18T11:06:56.318Z,96.20
2019-02-18T11:09:27.377Z,95.00
2019-02-18T11:11:58.804Z,91.60
2019-02-18T11:14:29.975Z,88.60
2019-02-18T11:17:01.422Z,82.30
2019-02-18T11:19:32.482Z,68.60
2019-02-18T11:22:03.896Z,65.20
2019-02-18T11:24:35.045Z,60.60
2019-02-18T11:27:06.392Z,56.80
2019-02-18T11:29:56.560Z,52.50
2019-02-18T11:32:27.798Z,51.00
2019-02-18T11:35:00.526Z,49.00
2019-02-18T11:37:32.958Z,48.20
2019-02-18T11:40:04.345Z,47.00
2019-02-18T11:42:37.419Z,47.60
2019-02-18T11:45:10.320Z,46.40
2019-02-18T11:47:41.734Z,46.30
2019-02-18T11:50:14.037Z,46.60
2019-02-18T11:52:45.536Z,46.00
2019-02-18T11:55:16.579Z,43.80
2019-02-18T11:57:48.280Z,42.20
2019-02-18T12:00:19.348Z,42.90
2019-02-18T12:02:50.689Z,40.90
2019-02-18T12:05:22.019Z,41.70
2019-02-18T12:07:53.369Z,41.70
2019-02-18T12:10:25.055Z,41.40
2019-02-18T12:12:56.477Z,40.30
2019-02-18T12:15:27.593Z,40.10
2019-02-18T12:17:59.057Z,39.90
2019-02-18T12:20:30.233Z,40.00
2019-02-18T12:23:01.438Z,41.60
2019-02-18T12:25:32.670Z,41.10
2019-02-18T12:28:04.270Z,41.20
2019-02-18T12:30:35.332Z,41.20
2019-02-18T12:33:06.656Z,39.70
2019-02-18T12:35:37.729Z,40.60
2019-02-18T12:38:09.161Z,39.20
2019-02-18T12:40:40.275Z,38.60
2019-02-18T12:43:11.652Z,38.30
2019-02-18T12:45:42.832Z,39.60
2019-02-18T12:48:14.249Z,40.60
2019-02-18T12:50:45.483Z,39.50
2019-02-18T12:53:16.945Z,40.00
2019-02-18T12:55:48.120Z,37.40
2019-02-18T12:58:19.654Z,37.70
2019-02-18T13:00:50.893Z,37.70
2019-02-18T13:03:22.503Z,39.20
2019-02-18T13:05:53.666Z,37.80
2019-02-18T13:08:25.277Z,37.90
2019-02-18T13:10:56.689Z,38.70
2019-02-18T13:13:31.348Z,39.00
2019-02-18T13:16:01.943Z,38.80
2019-02-18T13:18:33.934Z,38.40
2019-02-18T13:21:05.080Z,40.20
2019-02-18T13:23:36.539Z,39.30
2019-02-18T13:26:07.692Z,40.50
2019-02-18T13:28:39.120Z,41.20
2019-02-18T13:31:10.320Z,40.70
2019-02-18T13:33:41.717Z,40.20
2019-02-18T13:36:15.139Z,38.80
2019-02-18T13:38:46.561Z,41.20
2019-02-18T13:41:17.792Z,41.90
2019-02-18T13:43:49.116Z,43.10
2019-02-18T13:46:20.196Z,42.20
2019-02-18T13:48:51.554Z,41.20
2019-02-18T13:51:24.462Z,41.40
2019-02-18T13:53:55.838Z,40.10
2019-02-18T13:56:26.960Z,40.70
2019-02-18T13:58:58.283Z,40.40
2019-02-18T14:01:29.428Z,38.40
2019-02-18T14:04:00.776Z,37.60
2019-02-18T14:06:31.954Z,35.90
2019-02-18T14:09:04.517Z,35.60
2019-02-18T14:11:37.234Z,35.30
2019-02-18T14:14:08.632Z,36.40
2019-02-18T14:16:39.809Z,35.00
2019-02-18T14:19:11.252Z,36.70
2019-02-18T14:21:42.694Z,35.30
2019-02-18T14:24:14.299Z,35.40
2019-02-18T14:26:45.395Z,35.00
2019-02-18T14:29:16.830Z,35.50
2019-02-18T14:31:47.912Z,33.70
2019-02-18T14:34:19.432Z,34.00
2019-02-18T14:36:50.786Z,34.20
2019-02-18T14:39:26.585Z,34.50
2019-02-18T14:41:57.788Z,35.50
2019-02-18T14:44:29.171Z,35.10
2019-02-18T14:47:00.282Z,34.10
2019-02-18T14:49:31.807Z,32.90
2019-02-18T14:52:03.014Z,32.60
2019-02-18T14:54:34.521Z,32.40
2019-02-18T14:57:06.124Z,31.20
2019-02-18T14:59:37.424Z,29.40
2019-02-18T15:02:09.721Z,29.70
2019-02-18T15:04:41.066Z,30.30
2019-02-18T15:07:12.169Z,30.40
2019-02-18T15:09:43.440Z,29.50
2019-02-18T15:12:14.574Z,29.90
2019-02-18T15:14:45.846Z,31.20
2019-02-18T15:17:17.128Z,31.20
2019-02-18T15:19:48.528Z,31.20
2019-02-18T15:22:19.677Z,30.00
2019-02-18T15:24:51.182Z,30.00
2019-02-18T15:27:22.654Z,30.60
2019-02-18T15:29:54.031Z,30.10
2019-02-18T15:32:25.263Z,30.30
2019-02-18T15:34:56.636Z,30.20
2019-02-18T15:37:27.814Z,31.40
2019-02-18T15:39:59.225Z,30.80
2019-02-18T15:42:30.486Z,30.60
2019-02-18T15:45:01.928Z,32.10
2019-02-18T15:47:34.354Z,32.20
2019-02-18T15:50:06.582Z,32.40
2019-02-18T15:52:37.716Z,32.30
2019-02-18T15:55:09.789Z,33.30
2019-02-18T15:57:41.013Z,33.50
2019-02-18T16:00:15.807Z,33.10
2019-02-18T16:02:47.274Z,32.90
2019-02-18T16:05:18.760Z,33.40
2019-02-18T16:07:49.902Z,33.40
2019-02-18T16:10:21.252Z,33.70
2019-02-18T16:12:52.421Z,33.30
2019-02-18T16:15:23.858Z,35.20
2019-02-18T16:17:55.088Z,35.70
2019-02-18T16:20:26.368Z,35.70
2019-02-18T16:22:57.412Z,37.00
2019-02-18T16:25:28.815Z,38.80
2019-02-18T16:28:00.048Z,39.40
2019-02-18T16:30:31.333Z,40.10
2019-02-18T16:33:02.496Z,40.70
2019-02-18T16:35:34.549Z,41.60
2019-02-18T16:38:05.850Z,42.60
2019-02-18T16:40:37.553Z,43.70
2019-02-18T16:43:08.724Z,44.50
2019-02-18T16:45:40.095Z,44.70
2019-02-18T16:48:11.514Z,46.40
2019-02-18T16:50:43.273Z,48.30
2019-02-18T16:53:14.387Z,49.40
2019-02-18T16:55:45.856Z,51.50
2019-02-18T16:58:17.114Z,53.70
2019-02-18T17:00:48.456Z,54.50
2019-02-18T17:03:19.697Z,54.70
2019-02-18T17:05:51.064Z,57.30
2019-02-18T17:08:22.140Z,58.60
2019-02-18T17:10:53.445Z,61.50
2019-02-18T17:13:24.600Z,64.20
2019-02-18T17:15:56.102Z,67.20
2019-02-18T17:18:27.360Z,69.90
2019-02-18T17:20:58.748Z,72.10
2019-02-18T17:23:29.912Z,73.80
2019-02-18T17:26:01.234Z,77.00
2019-02-18T17:28:32.553Z,79.00
2019-02-18T17:31:04.032Z,79.60
2019-02-18T17:33:35.482Z,82.00
2019-02-18T17:36:06.685Z,84.50
2019-02-18T17:38:37.876Z,84.80
2019-02-18T17:41:09.240Z,86.50
2019-02-18T17:43:40.419Z,87.40
2019-02-18T17:46:12.222Z,87.80
2019-02-18T17:48:43.474Z,90.70
2019-02-18T17:51:14.736Z,90.50
2019-02-18T17:53:46.220Z,91.70
2019-02-18T17:56:17.895Z,93.10
2019-02-18T17:58:49.294Z,93.80
2019-02-18T18:01:20.554Z,94.90
2019-02-18T18:03:51.684Z,95.60
2019-02-18T18:06:23.042Z,95.90
2019-02-18T18:08:54.223Z,97.00
2019-02-18T18:11:25.540Z,96.50
2019-02-18T18:13:56.678Z,97.50
2019-02-18T18:16:28.255Z,98.50
2019-02-18T18:18:59.484Z,98.90
2019-02-18T18:21:32.061Z,98.70
2019-02-18T18:24:03.399Z,98.90
2019-02-18T18:26:34.871Z,98.60
2019-02-18T18:29:06.176Z,99.30
2019-02-18T18:31:37.968Z,99.80
2019-02-18T18:34:09.174Z,99.30
2019-02-18T18:36:40.527Z,99.40
2019-02-18T18:39:11.782Z,99.90
2019-02-18T18:41:43.608Z,99.90
2019-02-18T18:44:14.996Z,99.90
2019-02-18T18:46:46.380Z,99.90
2019-02-18T18:49:17.829Z,99.90
2019-02-18T18:51:49.686Z,99.90
2019-02-18T18:54:20.905Z,99.90
2019-02-18T18:56:52.578Z,99.90
2019-02-18T18:59:23.820Z,99.90
2019-02-18T19:01:55.926Z,99.90
2019-02-18T19:04:27.334Z,99.90
2019-02-18T19:06:58.822Z,99.90
2019-02-18T19:09:30.125Z,99.90
2019-02-18T19:12:01.478Z,99.90
2019-02-18T19:14:33.373Z,99.90
2019-02-18T19:17:04.740Z,99.90
2019-02-18T19:19:36.044Z,99.90
2019-02-18T19:22:07.660Z,99.90
2019-02-18T19:24:38.971Z,99.90
2019-02-18T19:27:10.836Z,99.90
2019-02-18T19:29:42.430Z,99.90
2019-02-18T19:32:14.078Z,99.90
2019-02-18T19:34:45.326Z,99.90
2019-02-18T19:37:16.868Z,99.90
2019-02-18T19:39:48.304Z,99.90
2019-02-18T19:42:19.956Z,99.90
2019-02-18T19:44:51.312Z,99.90
2019-02-18T19:47:22.747Z,99.90
2019-02-18T19:49:54.010Z,99.90
2019-02-18T19:52:25.550Z,99.90
2019-02-18T19:54:56.940Z,99.90
2019-02-18T19:57:28.433Z,99.90
2019-02-18T19:59:59.668Z,99.90
2019-02-18T20:02:31.259Z,99.90
2019-02-18T20:05:02.700Z,99.90
2019-02-18T20:07:34.218Z,99.90
2019-02-18T20:10:06.263Z,99.90
2019-02-18T20:12:37.691Z,99.90
2019-02-18T20:15:09.652Z,99.90
2019-02-18T20:17:40.936Z,99.90
2019-02-18T20:20:12.538Z,99.90
2019-02-18T20:22:44.061Z,99.90
2019-02-18T20:25:15.250Z,99.90
2019-02-18T20:27:47.005Z,99.90
2019-02-18T20:30:18.192Z,99.90
2019-02-18T20:32:49.561Z,99.90
2019-02-18T20:35:20.693Z,99.90
2019-02-18T20:37:52.228Z,99.90
2019-02-18T20:40:23.909Z,99.90
2019-02-18T20:42:56.627Z,99.90
2019-02-18T20:45:27.851Z,99.90
2019-02-18T20:47:59.280Z,99.90
2019-02-18T20:50:30.774Z,99.90
2019-02-18T20:53:02.974Z,99.90
2019-02-18T20:55:34.204Z,99.90
2019-02-18T20:58:05.566Z,99.90
2019-02-18T21:00:36.816Z,99.90
2019-02-18T21:03:08.360Z,99.90
2019-02-18T21:05:39.821Z,99.90
2019-02-18T21:08:11.111Z,99.90
2019-02-18T21:10:42.189Z,99.90
2019-02-18T21:13:13.552Z,99.90
2019-02-18T21:15:44.660Z,99.90
2019-02-18T21:18:16.465Z,99.90
2019-02-18T21:20:47.606Z,99.90
2019-02-18T21:23:18.890Z,99.90
2019-02-18T21:25:50.010Z,99.90
2019-02-18T21:28:21.477Z,99.90
2019-02-18T21:30:52.924Z,99.90
2019-02-18T21:33:24.379Z,99.90
2019-02-18T21:35:55.459Z,99.90
2019-02-18T21:38:26.705Z,99.90
2019-02-18T21:40:57.836Z,99.90
2019-02-18T21:43:29.668Z,99.90
2019-02-18T21:46:00.876Z,99.90
2019-02-18T21:48:32.457Z,99.90
2019-02-18T21:51:03.522Z,99.90
2019-02-18T21:53:34.768Z,99.90
2019-02-18T21:56:06.455Z,99.90
2019-02-18T21:58:37.854Z,99.90
2019-02-18T22:01:09.032Z,99.90
2019-02-18T22:03:40.537Z,99.90
2019-02-18T22:06:11.737Z,99.90
2019-02-18T22:08:43.282Z,99.90
2019-02-18T22:11:14.498Z,99.90
2019-02-18T22:13:45.769Z,99.90
2019-02-18T22:16:16.965Z,99.90
2019-02-18T22:18:48.524Z,99.90
2019-02-18T22:21:19.740Z,99.90
2019-02-18T22:23:51.540Z,99.90
2019-02-18T22:26:22.645Z,99.90
2019-02-18T22:28:54.031Z,99.90
2019-02-18T22:31:25.492Z,99.90
2019-02-18T22:33:57.069Z,99.90
2019-02-18T22:36:29.468Z,99.90
2019-02-18T22:39:01.199Z,99.90
2019-02-18T22:41:33.932Z,99.90
2019-02-18T22:44:05.423Z,99.90
2019-02-18T22:46:36.580Z,99.90
2019-02-18T22:49:08.514Z,99.90
2019-02-18T22:51:39.635Z,99.90
2019-02-18T22:54:11.241Z,99.90
2019-02-18T22:56:42.373Z,99.90
2019-02-18T22:59:13.702Z,99.90
2019-02-18T23:01:44.795Z,99.90
2019-02-18T23:04:16.337Z,99.90
2019-02-18T23:06:47.759Z,99.90
2019-02-18T23:09:19.212Z,99.90
2019-02-18T23:11:50.323Z,99.90
2019-02-18T23:14:21.710Z,99.90
2019-02-18T23:16:52.814Z,99.90
2019-02-18T23:19:24.108Z,99.90
2019-02-18T23:21:55.210Z,99.90
2019-02-18T23:24:26.826Z,99.90
2019-02-18T23:26:58.048Z,99.90
2019-02-18T23:29:30.303Z,99.90
2019-02-18T23:32:01.494Z,99.90
2019-02-18T23:34:32.776Z,99.90
2019-02-18T23:37:04.004Z,99.90
2019-02-18T23:39:54.448Z,99.90
2019-02-18T23:42:25.702Z,99.90
2019-02-18T23:44:59.215Z,99.90
2019-02-18T23:47:29.945Z,99.90
2019-02-18T23:50:01.323Z,99.90
2019-02-18T23:52:32.474Z,99.90
2019-02-18T23:55:03.869Z,99.90
2019-02-18T23:57:35.035Z,99.90
